sensor_id;sensor_type;location;lat;lon;timestamp;temperature;humidity
11748;DHT22;5931;48.832;9.072;2024-03-02T00:00:19;4.50;99.90
11748;DHT22;5931;48.832;9.072;2024-03-02T00:02:48;4.70;99.90
11748;DHT22;5931;48.832;9.072;2024-03-02T00:05:18;4.70;99.90
11748;DHT22;5931;48.832;9.072;2024-03-02T00:07:55;4.80;99.90
11748;DHT22;5931;48.832;9.072;2024-03-02T00:10:25;4.80;99.90
11748;DHT22;5931;48.832;9.072;2024-03-02T00:12:55;4.90;99.90
11748;DHT22;5931;48.832;9.072;2024-03-02T00:18:34;5.30;99.90
11748;DHT22;5931;48.832;9.072;2024-03-02T00:21:00;5.30;99.90
11748;DHT22;5931;48.832;9.072;2024-03-02T00:23:33;5.20;99.90
11748;DHT22;5931;48.832;9.072;2024-03-02T00:26:00;5.20;99.90
11748;DHT22;5931;48.832;9.072;2024-03-02T00:28:32;5.10;99.90
11748;DHT22;5931;48.832;9.072;2024-03-02T00:31:08;5.10;99.90
11748;DHT22;5931;48.832;9.072;2024-03-02T00:33:42;5.10;99.90
11748;DHT22;5931;48.832;9.072;2024-03-02T00:36:08;5.10;99.90
11748;DHT22;5931;48.832;9.072;2024-03-02T00:38:46;5.00;99.90
11748;DHT22;5931;48.832;9.072;2024-03-02T00:41:25;5.00;99.90
11748;DHT22;5931;48.832;9.072;2024-03-02T00:46:23;5.00;99.90
11748;DHT22;5931;48.832;9.072;2024-03-02T00:48:56;4.90;99.90
11748;DHT22;5931;48.832;9.072;2024-03-02T00:51:24;4.90;99.90
11748;DHT22;5931;48.832;9.072;2024-03-02T00:53:52;4.80;99.90
11748;DHT22;5931;48.832;9.072;2024-03-02T00:56:20;4.80;99.90
11748;DHT22;5931;48.832;9.072;2024-03-02T00:58:46;4.70;99.90
11748;DHT22;5931;48.832;9.072;2024-03-02T01:01:12;4.70;99.90
11748;DHT22;5931;48.832;9.072;2024-03-02T01:03:38;4.70;99.90
11748;DHT22;5931;48.832;9.072;2024-03-02T01:06:04;4.80;99.90
11748;DHT22;5931;48.832;9.072;2024-03-02T01:08:30;4.70;99.90
11748;DHT22;5931;48.832;9.072;2024-03-02T01:10:56;4.60;99.90
11748;DHT22;5931;48.832;9.072;2024-03-02T01:13:23;4.80;99.90
11748;DHT22;5931;48.832;9.072;2024-03-02T01:15:49;4.70;99.90
11748;DHT22;5931;48.832;9.072;2024-03-02T01:18:15;4.70;99.90
11748;DHT22;5931;48.832;9.072;2024-03-02T01:20:41;4.60;99.90
11748;DHT22;5931;48.832;9.072;2024-03-02T01:23:07;4.60;99.90
11748;DHT22;5931;48.832;9.072;2024-03-02T01:25:32;4.50;99.90
11748;DHT22;5931;48.832;9.072;2024-03-02T01:27:58;4.50;99.90
11748;DHT22;5931;48.832;9.072;2024-03-02T01:30:24;4.40;99.90
11748;DHT22;5931;48.832;9.072;2024-03-02T01:32:50;4.30;99.90
11748;DHT22;5931;48.832;9.072;2024-03-02T01:35:15;4.10;99.90
11748;DHT22;5931;48.832;9.072;2024-03-02T01:37:41;4.10;99.90
11748;DHT22;5931;48.832;9.072;2024-03-02T01:40:07;4.10;99.90
11748;DHT22;5931;48.832;9.072;2024-03-02T01:42:39;4.00;99.90
11748;DHT22;5931;48.832;9.072;2024-03-02T01:45:06;4.00;99.90
11748;DHT22;5931;48.832;9.072;2024-03-02T01:47:33;3.80;99.90
11748;DHT22;5931;48.832;9.072;2024-03-02T01:49:59;3.80;99.90
11748;DHT22;5931;48.832;9.072;2024-03-02T01:52:25;3.70;99.90
11748;DHT22;5931;48.832;9.072;2024-03-02T01:54:51;3.80;99.90
11748;DHT22;5931;48.832;9.072;2024-03-02T01:57:17;3.70;99.90
11748;DHT22;5931;48.832;9.072;2024-03-02T01:59:43;3.70;99.90
11748;DHT22;5931;48.832;9.072;2024-03-02T02:02:10;3.70;99.90
11748;DHT22;5931;48.832;9.072;2024-03-02T02:04:35;3.60;99.90
11748;DHT22;5931;48.832;9.072;2024-03-02T02:07:01;3.50;99.90
11748;DHT22;5931;48.832;9.072;2024-03-02T02:09:27;3.50;99.90
11748;DHT22;5931;48.832;9.072;2024-03-02T02:11:53;3.70;99.90
11748;DHT22;5931;48.832;9.072;2024-03-02T02:14:19;3.60;99.90
11748;DHT22;5931;48.832;9.072;2024-03-02T02:16:44;3.50;99.90
11748;DHT22;5931;48.832;9.072;2024-03-02T02:19:10;3.50;99.90
11748;DHT22;5931;48.832;9.072;2024-03-02T02:21:36;3.50;99.90
11748;DHT22;5931;48.832;9.072;2024-03-02T02:24:02;3.40;99.90
11748;DHT22;5931;48.832;9.072;2024-03-02T02:26:29;3.20;99.90
11748;DHT22;5931;48.832;9.072;2024-03-02T02:28:55;3.20;99.90
11748;DHT22;5931;48.832;9.072;2024-03-02T02:31:21;3.20;99.90
11748;DHT22;5931;48.832;9.072;2024-03-02T02:33:46;3.10;99.90
11748;DHT22;5931;48.832;9.072;2024-03-02T02:36:12;3.00;99.90
11748;DHT22;5931;48.832;9.072;2024-03-02T02:38:42;3.00;99.90
11748;DHT22;5931;48.832;9.072;2024-03-02T02:41:09;3.20;99.90
11748;DHT22;5931;48.832;9.072;2024-03-02T02:43:34;3.10;99.90
11748;DHT22;5931;48.832;9.072;2024-03-02T02:46:00;3.10;99.90
11748;DHT22;5931;48.832;9.072;2024-03-02T02:48:26;3.00;99.90
11748;DHT22;5931;48.832;9.072;2024-03-02T02:50:52;3.00;99.90
11748;DHT22;5931;48.832;9.072;2024-03-02T02:53:17;3.10;99.90
11748;DHT22;5931;48.832;9.072;2024-03-02T02:55:43;3.10;99.90
11748;DHT22;5931;48.832;9.072;2024-03-02T02:58:09;3.10;99.90
11748;DHT22;5931;48.832;9.072;2024-03-02T03:00:35;3.00;99.90
11748;DHT22;5931;48.832;9.072;2024-03-02T03:03:02;3.10;99.90
11748;DHT22;5931;48.832;9.072;2024-03-02T03:05:28;3.10;99.90
11748;DHT22;5931;48.832;9.072;2024-03-02T03:07:54;3.00;99.90
11748;DHT22;5931;48.832;9.072;2024-03-02T03:10:20;3.00;99.90
11748;DHT22;5931;48.832;9.072;2024-03-02T03:12:49;3.00;99.90
11748;DHT22;5931;48.832;9.072;2024-03-02T03:15:14;3.10;99.90
11748;DHT22;5931;48.832;9.072;2024-03-02T03:17:42;3.20;99.90
11748;DHT22;5931;48.832;9.072;2024-03-02T03:20:08;3.20;99.90
11748;DHT22;5931;48.832;9.072;2024-03-02T03:22:37;3.30;99.90
11748;DHT22;5931;48.832;9.072;2024-03-02T03:25:03;3.40;99.90
11748;DHT22;5931;48.832;9.072;2024-03-02T03:27:29;3.40;99.90
11748;DHT22;5931;48.832;9.072;2024-03-02T03:29:55;3.50;99.90
11748;DHT22;5931;48.832;9.072;2024-03-02T03:32:21;3.50;99.90
11748;DHT22;5931;48.832;9.072;2024-03-02T03:34:47;3.50;99.90
11748;DHT22;5931;48.832;9.072;2024-03-02T03:37:14;3.60;99.90
11748;DHT22;5931;48.832;9.072;2024-03-02T03:39:40;3.90;99.90
11748;DHT22;5931;48.832;9.072;2024-03-02T03:42:05;3.90;99.90
11748;DHT22;5931;48.832;9.072;2024-03-02T03:44:32;3.90;99.90
11748;DHT22;5931;48.832;9.072;2024-03-02T03:46:58;4.00;99.90
11748;DHT22;5931;48.832;9.072;2024-03-02T03:49:23;4.00;99.90
11748;DHT22;5931;48.832;9.072;2024-03-02T03:51:49;4.00;99.90
11748;DHT22;5931;48.832;9.072;2024-03-02T03:54:15;3.90;99.90
11748;DHT22;5931;48.832;9.072;2024-03-02T03:56:41;4.10;99.90
11748;DHT22;5931;48.832;9.072;2024-03-02T03:59:07;4.20;99.90
11748;DHT22;5931;48.832;9.072;2024-03-02T04:01:32;4.30;99.90
11748;DHT22;5931;48.832;9.072;2024-03-02T04:03:59;4.40;99.90
11748;DHT22;5931;48.832;9.072;2024-03-02T04:06:25;4.40;99.90
11748;DHT22;5931;48.832;9.072;2024-03-02T04:08:51;4.50;99.90
11748;DHT22;5931;48.832;9.072;2024-03-02T04:11:16;4.60;99.90
11748;DHT22;5931;48.832;9.072;2024-03-02T04:13:42;4.70;99.90
11748;DHT22;5931;48.832;9.072;2024-03-02T04:16:08;4.50;99.90
11748;DHT22;5931;48.832;9.072;2024-03-02T04:18:34;4.40;99.90
11748;DHT22;5931;48.832;9.072;2024-03-02T04:21:00;4.40;99.90
11748;DHT22;5931;48.832;9.072;2024-03-02T04:23:26;4.40;99.90
11748;DHT22;5931;48.832;9.072;2024-03-02T04:25:53;4.50;99.90
11748;DHT22;5931;48.832;9.072;2024-03-02T04:28:18;4.60;99.90
11748;DHT22;5931;48.832;9.072;2024-03-02T04:30:44;4.70;99.90
11748;DHT22;5931;48.832;9.072;2024-03-02T04:33:10;4.60;99.90
11748;DHT22;5931;48.832;9.072;2024-03-02T04:35:36;4.50;99.90
11748;DHT22;5931;48.832;9.072;2024-03-02T04:38:02;4.40;99.90
11748;DHT22;5931;48.832;9.072;2024-03-02T04:40:28;4.20;99.90
11748;DHT22;5931;48.832;9.072;2024-03-02T04:42:54;4.10;99.90
11748;DHT22;5931;48.832;9.072;2024-03-02T04:45:20;4.00;99.90
11748;DHT22;5931;48.832;9.072;2024-03-02T04:47:46;4.00;99.90
11748;DHT22;5931;48.832;9.072;2024-03-02T04:50:11;3.90;99.90
11748;DHT22;5931;48.832;9.072;2024-03-02T04:52:37;3.90;99.90
11748;DHT22;5931;48.832;9.072;2024-03-02T04:55:03;3.80;99.90
11748;DHT22;5931;48.832;9.072;2024-03-02T04:57:35;3.70;99.90
11748;DHT22;5931;48.832;9.072;2024-03-02T05:00:01;3.70;99.90
11748;DHT22;5931;48.832;9.072;2024-03-02T05:02:27;3.60;99.90
11748;DHT22;5931;48.832;9.072;2024-03-02T05:04:53;3.60;99.90
11748;DHT22;5931;48.832;9.072;2024-03-02T05:07:18;3.70;99.90
11748;DHT22;5931;48.832;9.072;2024-03-02T05:09:44;3.60;99.90
11748;DHT22;5931;48.832;9.072;2024-03-02T05:12:10;3.50;99.90
11748;DHT22;5931;48.832;9.072;2024-03-02T05:14:36;3.50;99.90
11748;DHT22;5931;48.832;9.072;2024-03-02T05:17:02;3.60;99.90
11748;DHT22;5931;48.832;9.072;2024-03-02T05:19:28;3.70;99.90
11748;DHT22;5931;48.832;9.072;2024-03-02T05:21:54;3.60;99.90
11748;DHT22;5931;48.832;9.072;2024-03-02T05:24:20;3.70;99.90
11748;DHT22;5931;48.832;9.072;2024-03-02T05:26:45;3.60;99.90
11748;DHT22;5931;48.832;9.072;2024-03-02T05:29:11;3.50;99.90
11748;DHT22;5931;48.832;9.072;2024-03-02T05:31:37;3.40;99.90
11748;DHT22;5931;48.832;9.072;2024-03-02T05:34:03;3.40;99.90
11748;DHT22;5931;48.832;9.072;2024-03-02T05:36:29;3.30;99.90
11748;DHT22;5931;48.832;9.072;2024-03-02T05:38:54;3.20;99.90
11748;DHT22;5931;48.832;9.072;2024-03-02T05:41:20;3.10;99.90
11748;DHT22;5931;48.832;9.072;2024-03-02T05:43:46;3.10;99.90
11748;DHT22;5931;48.832;9.072;2024-03-02T05:46:12;3.00;99.90
11748;DHT22;5931;48.832;9.072;2024-03-02T05:48:37;3.10;99.90
11748;DHT22;5931;48.832;9.072;2024-03-02T05:51:03;3.00;99.90
11748;DHT22;5931;48.832;9.072;2024-03-02T05:53:29;3.00;99.90
11748;DHT22;5931;48.832;9.072;2024-03-02T05:55:55;3.00;99.90
11748;DHT22;5931;48.832;9.072;2024-03-02T05:58:22;3.00;99.90
11748;DHT22;5931;48.832;9.072;2024-03-02T06:00:58;3.00;99.90
11748;DHT22;5931;48.832;9.072;2024-03-02T06:03:24;3.00;99.90
11748;DHT22;5931;48.832;9.072;2024-03-02T06:05:49;3.00;99.90
11748;DHT22;5931;48.832;9.072;2024-03-02T06:08:16;3.10;99.90
11748;DHT22;5931;48.832;9.072;2024-03-02T06:10:43;3.10;99.90
11748;DHT22;5931;48.832;9.072;2024-03-02T06:13:09;3.10;99.90
11748;DHT22;5931;48.832;9.072;2024-03-02T06:15:34;3.20;99.90
11748;DHT22;5931;48.832;9.072;2024-03-02T06:18:01;3.30;99.90
11748;DHT22;5931;48.832;9.072;2024-03-02T06:20:27;3.40;99.90
11748;DHT22;5931;48.832;9.072;2024-03-02T06:22:53;3.40;99.90
11748;DHT22;5931;48.832;9.072;2024-03-02T06:25:18;3.50;99.90
11748;DHT22;5931;48.832;9.072;2024-03-02T06:27:44;3.60;99.90
11748;DHT22;5931;48.832;9.072;2024-03-02T06:30:10;3.70;99.90
11748;DHT22;5931;48.832;9.072;2024-03-02T06:32:36;3.80;99.90
11748;DHT22;5931;48.832;9.072;2024-03-02T06:35:02;3.90;99.90
11748;DHT22;5931;48.832;9.072;2024-03-02T06:37:29;4.00;99.90
11748;DHT22;5931;48.832;9.072;2024-03-02T06:39:55;4.20;99.90
11748;DHT22;5931;48.832;9.072;2024-03-02T06:42:21;4.40;99.90
11748;DHT22;5931;48.832;9.072;2024-03-02T06:44:46;4.50;99.90
11748;DHT22;5931;48.832;9.072;2024-03-02T06:47:12;4.50;99.90
11748;DHT22;5931;48.832;9.072;2024-03-02T06:49:38;4.70;99.90
11748;DHT22;5931;48.832;9.072;2024-03-02T06:52:04;4.80;99.90
11748;DHT22;5931;48.832;9.072;2024-03-02T06:54:29;5.00;99.90
11748;DHT22;5931;48.832;9.072;2024-03-02T06:56:55;5.10;99.90
11748;DHT22;5931;48.832;9.072;2024-03-02T06:59:21;5.20;99.90
11748;DHT22;5931;48.832;9.072;2024-03-02T07:01:47;5.30;99.90
11748;DHT22;5931;48.832;9.072;2024-03-02T07:04:13;5.40;99.90
11748;DHT22;5931;48.832;9.072;2024-03-02T07:06:39;5.50;99.90
11748;DHT22;5931;48.832;9.072;2024-03-02T07:09:05;5.50;99.90
11748;DHT22;5931;48.832;9.072;2024-03-02T07:11:31;5.50;99.90
11748;DHT22;5931;48.832;9.072;2024-03-02T07:13:56;5.60;99.90
11748;DHT22;5931;48.832;9.072;2024-03-02T07:16:22;5.70;99.90
11748;DHT22;5931;48.832;9.072;2024-03-02T07:18:54;5.70;99.90
11748;DHT22;5931;48.832;9.072;2024-03-02T07:21:22;5.90;99.90
11748;DHT22;5931;48.832;9.072;2024-03-02T07:23:48;5.90;99.90
11748;DHT22;5931;48.832;9.072;2024-03-02T07:26:14;5.90;99.90
11748;DHT22;5931;48.832;9.072;2024-03-02T07:28:47;6.00;99.90
11748;DHT22;5931;48.832;9.072;2024-03-02T07:31:14;6.00;99.90
11748;DHT22;5931;48.832;9.072;2024-03-02T07:33:41;6.00;99.90
11748;DHT22;5931;48.832;9.072;2024-03-02T07:36:07;5.90;99.90
11748;DHT22;5931;48.832;9.072;2024-03-02T07:38:33;6.00;99.90
11748;DHT22;5931;48.832;9.072;2024-03-02T07:41:00;6.00;99.90
11748;DHT22;5931;48.832;9.072;2024-03-02T07:43:26;6.10;99.90
11748;DHT22;5931;48.832;9.072;2024-03-02T07:45:52;6.10;99.90
11748;DHT22;5931;48.832;9.072;2024-03-02T07:48:18;6.10;99.90
11748;DHT22;5931;48.832;9.072;2024-03-02T07:50:44;6.10;99.90
11748;DHT22;5931;48.832;9.072;2024-03-02T07:53:10;6.10;99.90
11748;DHT22;5931;48.832;9.072;2024-03-02T07:55:36;6.00;99.90
11748;DHT22;5931;48.832;9.072;2024-03-02T07:58:02;6.00;99.90
11748;DHT22;5931;48.832;9.072;2024-03-02T08:00:28;5.90;99.90
11748;DHT22;5931;48.832;9.072;2024-03-02T08:02:54;5.90;99.90
11748;DHT22;5931;48.832;9.072;2024-03-02T08:05:21;6.00;99.90
11748;DHT22;5931;48.832;9.072;2024-03-02T08:07:46;5.90;99.90
11748;DHT22;5931;48.832;9.072;2024-03-02T08:10:13;6.00;99.90
11748;DHT22;5931;48.832;9.072;2024-03-02T08:12:39;6.00;99.90
11748;DHT22;5931;48.832;9.072;2024-03-02T08:15:06;6.00;99.90
11748;DHT22;5931;48.832;9.072;2024-03-02T08:17:32;6.10;99.90
11748;DHT22;5931;48.832;9.072;2024-03-02T08:19:58;6.20;99.90
11748;DHT22;5931;48.832;9.072;2024-03-02T08:22:24;6.20;99.90
11748;DHT22;5931;48.832;9.072;2024-03-02T08:24:52;6.30;99.90
11748;DHT22;5931;48.832;9.072;2024-03-02T08:27:18;6.40;99.90
11748;DHT22;5931;48.832;9.072;2024-03-02T08:29:44;6.60;99.90
11748;DHT22;5931;48.832;9.072;2024-03-02T08:32:10;6.70;99.90
11748;DHT22;5931;48.832;9.072;2024-03-02T08:34:36;6.80;99.90
11748;DHT22;5931;48.832;9.072;2024-03-02T08:37:02;7.00;99.90
11748;DHT22;5931;48.832;9.072;2024-03-02T08:39:29;7.20;99.90
11748;DHT22;5931;48.832;9.072;2024-03-02T08:41:54;7.30;99.90
11748;DHT22;5931;48.832;9.072;2024-03-02T08:44:20;7.40;99.90
11748;DHT22;5931;48.832;9.072;2024-03-02T08:46:47;7.60;99.90
11748;DHT22;5931;48.832;9.072;2024-03-02T08:49:13;7.70;99.90
11748;DHT22;5931;48.832;9.072;2024-03-02T08:51:39;7.80;99.90
11748;DHT22;5931;48.832;9.072;2024-03-02T08:54:04;7.90;99.90
11748;DHT22;5931;48.832;9.072;2024-03-02T08:56:32;8.10;99.90
11748;DHT22;5931;48.832;9.072;2024-03-02T08:58:58;8.20;99.90
11748;DHT22;5931;48.832;9.072;2024-03-02T09:01:24;8.40;99.90
11748;DHT22;5931;48.832;9.072;2024-03-02T09:03:49;8.60;99.90
11748;DHT22;5931;48.832;9.072;2024-03-02T09:06:15;8.60;99.90
11748;DHT22;5931;48.832;9.072;2024-03-02T09:08:45;8.70;99.90
11748;DHT22;5931;48.832;9.072;2024-03-02T09:11:11;8.80;99.90
11748;DHT22;5931;48.832;9.072;2024-03-02T09:13:38;8.90;99.90
11748;DHT22;5931;48.832;9.072;2024-03-02T09:16:04;9.00;99.90
11748;DHT22;5931;48.832;9.072;2024-03-02T09:18:31;9.20;99.90
11748;DHT22;5931;48.832;9.072;2024-03-02T09:20:57;9.30;99.90
11748;DHT22;5931;48.832;9.072;2024-03-02T09:23:22;9.40;99.90
11748;DHT22;5931;48.832;9.072;2024-03-02T09:25:48;9.50;99.90
11748;DHT22;5931;48.832;9.072;2024-03-02T09:28:17;9.60;99.90
11748;DHT22;5931;48.832;9.072;2024-03-02T09:30:44;9.80;99.90
11748;DHT22;5931;48.832;9.072;2024-03-02T09:33:10;9.90;99.90
11748;DHT22;5931;48.832;9.072;2024-03-02T09:35:36;10.10;99.90
11748;DHT22;5931;48.832;9.072;2024-03-02T09:38:01;10.20;99.90
11748;DHT22;5931;48.832;9.072;2024-03-02T09:40:29;10.30;99.90
11748;DHT22;5931;48.832;9.072;2024-03-02T09:42:54;10.50;99.90
11748;DHT22;5931;48.832;9.072;2024-03-02T09:45:24;10.50;99.90
11748;DHT22;5931;48.832;9.072;2024-03-02T09:47:50;10.60;99.90
11748;DHT22;5931;48.832;9.072;2024-03-02T09:50:16;10.80;99.90
11748;DHT22;5931;48.832;9.072;2024-03-02T09:52:43;10.90;99.90
11748;DHT22;5931;48.832;9.072;2024-03-02T09:55:09;11.00;99.90
11748;DHT22;5931;48.832;9.072;2024-03-02T09:57:35;11.10;99.90
11748;DHT22;5931;48.832;9.072;2024-03-02T10:00:01;11.20;99.90
11748;DHT22;5931;48.832;9.072;2024-03-02T10:02:30;11.30;99.90
11748;DHT22;5931;48.832;9.072;2024-03-02T10:04:56;11.40;99.90
11748;DHT22;5931;48.832;9.072;2024-03-02T10:07:22;11.50;99.90
11748;DHT22;5931;48.832;9.072;2024-03-02T10:09:49;11.60;99.90
11748;DHT22;5931;48.832;9.072;2024-03-02T10:12:16;11.70;99.90
11748;DHT22;5931;48.832;9.072;2024-03-02T10:14:42;11.80;99.90
11748;DHT22;5931;48.832;9.072;2024-03-02T10:17:09;11.90;99.90
11748;DHT22;5931;48.832;9.072;2024-03-02T10:19:36;11.90;99.90
11748;DHT22;5931;48.832;9.072;2024-03-02T10:22:03;11.90;99.90
11748;DHT22;5931;48.832;9.072;2024-03-02T10:24:36;12.00;99.90
11748;DHT22;5931;48.832;9.072;2024-03-02T10:27:16;12.10;99.90
11748;DHT22;5931;48.832;9.072;2024-03-02T10:29:45;12.30;99.90
11748;DHT22;5931;48.832;9.072;2024-03-02T10:32:12;12.30;99.90
11748;DHT22;5931;48.832;9.072;2024-03-02T10:34:45;12.40;99.90
11748;DHT22;5931;48.832;9.072;2024-03-02T10:37:11;12.50;99.90
11748;DHT22;5931;48.832;9.072;2024-03-02T10:39:39;12.60;99.90
11748;DHT22;5931;48.832;9.072;2024-03-02T10:42:06;12.60;99.90
11748;DHT22;5931;48.832;9.072;2024-03-02T10:44:32;12.60;99.90
11748;DHT22;5931;48.832;9.072;2024-03-02T10:47:02;12.60;99.90
11748;DHT22;5931;48.832;9.072;2024-03-02T10:49:30;12.70;99.90
11748;DHT22;5931;48.832;9.072;2024-03-02T10:52:00;12.90;99.90
11748;DHT22;5931;48.832;9.072;2024-03-02T10:54:26;13.00;99.90
11748;DHT22;5931;48.832;9.072;2024-03-02T10:56:53;13.10;99.90
11748;DHT22;5931;48.832;9.072;2024-03-02T11:01:56;13.30;99.90
11748;DHT22;5931;48.832;9.072;2024-03-02T11:04:24;13.40;99.90
11748;DHT22;5931;48.832;9.072;2024-03-02T11:06:51;13.40;99.90
11748;DHT22;5931;48.832;9.072;2024-03-02T11:09:22;13.50;99.90
11748;DHT22;5931;48.832;9.072;2024-03-02T11:14:43;13.60;99.90
11748;DHT22;5931;48.832;9.072;2024-03-02T11:17:10;13.70;99.90
11748;DHT22;5931;48.832;9.072;2024-03-02T11:19:40;13.70;99.90
11748;DHT22;5931;48.832;9.072;2024-03-02T11:22:07;13.70;99.90
11748;DHT22;5931;48.832;9.072;2024-03-02T11:24:34;13.80;99.90
11748;DHT22;5931;48.832;9.072;2024-03-02T11:27:04;13.90;99.90
11748;DHT22;5931;48.832;9.072;2024-03-02T11:32:03;14.10;99.90
11748;DHT22;5931;48.832;9.072;2024-03-02T11:34:33;14.10;99.90
11748;DHT22;5931;48.832;9.072;2024-03-02T11:37:01;14.20;99.90
11748;DHT22;5931;48.832;9.072;2024-03-02T11:39:29;14.30;99.90
11748;DHT22;5931;48.832;9.072;2024-03-02T11:41:56;14.30;99.90
11748;DHT22;5931;48.832;9.072;2024-03-02T11:44:25;14.30;99.90
11748;DHT22;5931;48.832;9.072;2024-03-02T11:46:59;14.40;99.90
11748;DHT22;5931;48.832;9.072;2024-03-02T11:49:44;14.30;99.90
11748;DHT22;5931;48.832;9.072;2024-03-02T11:52:12;14.40;99.90
11748;DHT22;5931;48.832;9.072;2024-03-02T11:54:39;14.40;99.90
11748;DHT22;5931;48.832;9.072;2024-03-02T11:57:09;14.40;99.90
11748;DHT22;5931;48.832;9.072;2024-03-02T11:59:34;14.40;99.90
11748;DHT22;5931;48.832;9.072;2024-03-02T12:02:01;14.30;99.90
11748;DHT22;5931;48.832;9.072;2024-03-02T12:04:29;14.20;99.90
11748;DHT22;5931;48.832;9.072;2024-03-02T12:06:59;14.40;99.90
11748;DHT22;5931;48.832;9.072;2024-03-02T12:09:28;14.40;99.90
11748;DHT22;5931;48.832;9.072;2024-03-02T12:14:33;14.60;99.90
11748;DHT22;5931;48.832;9.072;2024-03-02T12:17:00;14.70;99.90
11748;DHT22;5931;48.832;9.072;2024-03-02T12:19:27;14.70;99.90
11748;DHT22;5931;48.832;9.072;2024-03-02T12:21:53;14.80;99.90
11748;DHT22;5931;48.832;9.072;2024-03-02T12:24:21;15.00;99.90
11748;DHT22;5931;48.832;9.072;2024-03-02T12:26:47;15.00;99.90
11748;DHT22;5931;48.832;9.072;2024-03-02T12:29:14;15.00;99.90
11748;DHT22;5931;48.832;9.072;2024-03-02T12:31:42;15.10;99.90
11748;DHT22;5931;48.832;9.072;2024-03-02T12:34:08;15.10;99.90
11748;DHT22;5931;48.832;9.072;2024-03-02T12:36:38;15.10;99.90
11748;DHT22;5931;48.832;9.072;2024-03-02T12:39:04;15.00;99.90
11748;DHT22;5931;48.832;9.072;2024-03-02T12:41:30;15.10;99.90
11748;DHT22;5931;48.832;9.072;2024-03-02T12:43:56;15.10;99.90
11748;DHT22;5931;48.832;9.072;2024-03-02T12:46:22;15.10;99.90
11748;DHT22;5931;48.832;9.072;2024-03-02T12:48:48;15.20;99.90
11748;DHT22;5931;48.832;9.072;2024-03-02T12:51:14;15.20;99.90
11748;DHT22;5931;48.832;9.072;2024-03-02T12:53:40;15.30;99.90
11748;DHT22;5931;48.832;9.072;2024-03-02T12:56:07;15.40;99.90
11748;DHT22;5931;48.832;9.072;2024-03-02T12:58:39;15.40;99.90
11748;DHT22;5931;48.832;9.072;2024-03-02T13:01:09;15.30;99.90
11748;DHT22;5931;48.832;9.072;2024-03-02T13:03:38;15.20;99.90
11748;DHT22;5931;48.832;9.072;2024-03-02T13:06:06;15.20;99.90
11748;DHT22;5931;48.832;9.072;2024-03-02T13:08:33;15.20;99.90
11748;DHT22;5931;48.832;9.072;2024-03-02T13:10:59;15.20;99.90
11748;DHT22;5931;48.832;9.072;2024-03-02T13:13:25;15.10;99.90
11748;DHT22;5931;48.832;9.072;2024-03-02T13:15:55;15.00;99.90
11748;DHT22;5931;48.832;9.072;2024-03-02T13:18:22;14.90;99.90
11748;DHT22;5931;48.832;9.072;2024-03-02T13:20:48;15.10;99.90
11748;DHT22;5931;48.832;9.072;2024-03-02T13:23:14;15.20;99.90
11748;DHT22;5931;48.832;9.072;2024-03-02T13:25:40;15.40;99.90
11748;DHT22;5931;48.832;9.072;2024-03-02T13:28:06;15.40;99.90
11748;DHT22;5931;48.832;9.072;2024-03-02T13:30:32;15.50;99.90
11748;DHT22;5931;48.832;9.072;2024-03-02T13:32:58;15.50;99.90
11748;DHT22;5931;48.832;9.072;2024-03-02T13:35:24;15.50;99.90
11748;DHT22;5931;48.832;9.072;2024-03-02T13:37:50;15.50;99.90
11748;DHT22;5931;48.832;9.072;2024-03-02T13:40:16;15.40;99.90
11748;DHT22;5931;48.832;9.072;2024-03-02T13:42:49;15.40;99.90
11748;DHT22;5931;48.832;9.072;2024-03-02T13:45:16;15.30;99.90
11748;DHT22;5931;48.832;9.072;2024-03-02T13:47:44;15.40;99.90
11748;DHT22;5931;48.832;9.072;2024-03-02T13:50:10;15.30;99.90
11748;DHT22;5931;48.832;9.072;2024-03-02T13:52:36;15.20;99.90
11748;DHT22;5931;48.832;9.072;2024-03-02T13:55:01;15.10;99.90
11748;DHT22;5931;48.832;9.072;2024-03-02T13:57:28;14.90;99.90
11748;DHT22;5931;48.832;9.072;2024-03-02T13:59:54;14.90;99.90
11748;DHT22;5931;48.832;9.072;2024-03-02T14:02:20;14.70;99.90
11748;DHT22;5931;48.832;9.072;2024-03-02T14:04:48;14.70;99.90
11748;DHT22;5931;48.832;9.072;2024-03-02T14:07:14;14.70;99.90
11748;DHT22;5931;48.832;9.072;2024-03-02T14:09:40;14.70;99.90
11748;DHT22;5931;48.832;9.072;2024-03-02T14:12:07;14.70;99.90
11748;DHT22;5931;48.832;9.072;2024-03-02T14:14:33;14.60;99.90
11748;DHT22;5931;48.832;9.072;2024-03-02T14:16:59;14.60;99.90
11748;DHT22;5931;48.832;9.072;2024-03-02T14:19:29;14.60;99.90
11748;DHT22;5931;48.832;9.072;2024-03-02T14:21:55;14.60;99.90
11748;DHT22;5931;48.832;9.072;2024-03-02T14:24:21;14.70;99.90
11748;DHT22;5931;48.832;9.072;2024-03-02T14:26:54;14.80;99.90
11748;DHT22;5931;48.832;9.072;2024-03-02T14:29:20;14.90;99.90
11748;DHT22;5931;48.832;9.072;2024-03-02T14:31:46;14.90;99.90
11748;DHT22;5931;48.832;9.072;2024-03-02T14:34:18;15.00;99.90
11748;DHT22;5931;48.832;9.072;2024-03-02T14:36:43;15.00;99.90
11748;DHT22;5931;48.832;9.072;2024-03-02T14:39:10;15.00;99.90
11748;DHT22;5931;48.832;9.072;2024-03-02T14:41:37;15.00;99.90
11748;DHT22;5931;48.832;9.072;2024-03-02T14:44:03;15.20;99.90
11748;DHT22;5931;48.832;9.072;2024-03-02T14:46:29;15.30;99.90
11748;DHT22;5931;48.832;9.072;2024-03-02T14:48:55;15.30;99.90
11748;DHT22;5931;48.832;9.072;2024-03-02T14:51:21;15.20;99.90
11748;DHT22;5931;48.832;9.072;2024-03-02T14:53:46;15.30;99.90
11748;DHT22;5931;48.832;9.072;2024-03-02T14:56:12;15.40;99.90
11748;DHT22;5931;48.832;9.072;2024-03-02T14:58:41;15.40;99.90
11748;DHT22;5931;48.832;9.072;2024-03-02T15:01:07;15.50;99.90
11748;DHT22;5931;48.832;9.072;2024-03-02T15:03:34;15.50;99.90
11748;DHT22;5931;48.832;9.072;2024-03-02T15:06:01;15.60;99.90
11748;DHT22;5931;48.832;9.072;2024-03-02T15:08:29;15.70;99.90
11748;DHT22;5931;48.832;9.072;2024-03-02T15:10:55;15.90;99.90
11748;DHT22;5931;48.832;9.072;2024-03-02T15:13:23;16.00;99.90
11748;DHT22;5931;48.832;9.072;2024-03-02T15:15:50;16.20;99.90
11748;DHT22;5931;48.832;9.072;2024-03-02T15:18:16;16.70;99.90
11748;DHT22;5931;48.832;9.072;2024-03-02T15:20:42;16.90;99.90
11748;DHT22;5931;48.832;9.072;2024-03-02T15:23:08;16.80;99.90
11748;DHT22;5931;48.832;9.072;2024-03-02T15:25:34;16.60;99.90
11748;DHT22;5931;48.832;9.072;2024-03-02T15:27:59;16.40;99.90
11748;DHT22;5931;48.832;9.072;2024-03-02T15:30:25;16.00;99.90
11748;DHT22;5931;48.832;9.072;2024-03-02T15:32:51;15.70;99.90
11748;DHT22;5931;48.832;9.072;2024-03-02T15:35:17;15.40;99.90
11748;DHT22;5931;48.832;9.072;2024-03-02T15:37:43;15.10;99.90
11748;DHT22;5931;48.832;9.072;2024-03-02T15:40:09;14.90;99.90
11748;DHT22;5931;48.832;9.072;2024-03-02T15:42:35;14.70;99.90
11748;DHT22;5931;48.832;9.072;2024-03-02T15:45:10;14.50;99.90
11748;DHT22;5931;48.832;9.072;2024-03-02T15:47:36;14.40;99.90
11748;DHT22;5931;48.832;9.072;2024-03-02T15:50:03;14.30;99.90
11748;DHT22;5931;48.832;9.072;2024-03-02T15:52:30;14.20;99.90
11748;DHT22;5931;48.832;9.072;2024-03-02T15:54:56;14.10;99.90
11748;DHT22;5931;48.832;9.072;2024-03-02T15:57:21;14.00;99.90
11748;DHT22;5931;48.832;9.072;2024-03-02T15:59:48;14.00;99.90
11748;DHT22;5931;48.832;9.072;2024-03-02T16:02:15;13.90;99.90
11748;DHT22;5931;48.832;9.072;2024-03-02T16:04:41;13.90;99.90
11748;DHT22;5931;48.832;9.072;2024-03-02T16:07:07;13.90;99.90